map of POI home
Great Circle Mapper logo
POI - Airport
Location
City:  Potosí, Bolivia
Name:Capitan Nicolas Rojas
ICAO / IATA:SLPO / POI

Details
Type:Airport (Aerodrome, Airfield)
Latitude:19°32'35"S (-19.543068)
Longitude:65°43'25"W (-65.723705)
Datum:WGS 1984
Elevation:12913 ft (3936 m)
Runways:1
Longest:9295 × 98 ft (2833 × 30 m), paved

Time
Time Zone:UTC-4
Local Time:

Weather
METAR:SLPO 242100Z 24015KT 9999 NSC 13/M07 Q1031

Related Locations
Nearby:
Farthest:ZUH: 12252 mi / 19718 km
Zhuhai (Sanzao, Shanzhou) [Intl], Guangdong, CN

Find:

   beyond  
but within

Other Information
Maps:
NOTAMs:
Links:
Sources:

  
flag of Bolivia   

Sectional Chart

Flight Planning
at skyvector.com

Satellite Image

Google Maps Satellite View

 

Copyright © 2004-2014 Karl L. Swartz. All rights reserved.
The Great Circle Mapper name and logo are trademarks of the Great Circle Mapper.
All other trademarks mentioned herein belong to their respective owners.
Please see credits for attibutions and further copyright information.

  Follow gcmap on Facebook Follow gcmap on Twitter

hCard Microformat

Geo Microformat